Time;durP1;ratioP1;P1;durP2;ratioP2;P2;SDS_P1;SDS_P2;PMS_P1;PMS_P2;Temp;Humidity;BMP_temperature;BMP_pressure;BME280_temperature;BME280_humidity;BME280_pressure;Samples;Min_cycle;Max_cycle;Signal;HPM_P1;HPM_P2
2024/02/15 00:00:37;;;;;;;;;;;;;;;6.25;55.62;96633.34;7401232;19;2115;-65
2024/02/15 00:03:06;;;;;;;;;;;;;;;6.30;55.04;96636.69;7400991;19;1052;-71
2024/02/15 00:05:36;;;;;;;;;;;;;;;6.28;56.20;96635.00;7400143;19;2018;-72
2024/02/15 00:08:05;;;;;;;;;;;;;;;6.28;56.30;96642.81;7401197;19;1058;-69
2024/02/15 00:10:34;;;;;;;;;;;;;;;6.24;55.44;96644.63;7401015;19;1645;-68
2024/02/15 00:13:02;;;;;;;;;;;;;;;6.24;56.54;96647.22;7400617;19;1026;-70
2024/02/15 00:15:31;;;;;;;;;;;;;;;6.28;55.86;96650.59;7400498;19;1124;-74
2024/02/15 00:18:03;;;;;;;;;;;;;;;6.23;56.70;96644.66;7401227;19;1744;-67
2024/02/15 00:20:33;;;;;;;;;;;;;;;6.23;56.82;96644.66;7400351;19;1215;-71
2024/02/15 00:23:02;;;;;;;;;;;;;;;6.25;56.50;96648.06;7400728;19;1003;-73
2024/02/15 00:25:30;;;;;;;;;;;;;;;6.23;56.31;96647.25;7399739;19;1846;-67
2024/02/15 00:28:00;;;;;;;;;;;;;;;6.22;56.94;96654.19;7400538;19;1051;-72
2024/02/15 00:30:28;;;;;;;;;;;;;;;6.24;56.46;96655.03;7400421;19;972;-70
2024/02/15 00:32:57;;;;;;;;;;;;;;;6.10;57.04;96644.88;7400404;19;942;-72
2024/02/15 00:35:28;;;;;;;;;;;;;;;5.99;56.38;96652.81;7400176;19;1831;-73
2024/02/15 00:37:57;;;;;;;;;;;;;;;5.99;56.21;96652.81;7399225;19;1216;-73
2024/02/15 00:40:25;;;;;;;;;;;;;;;5.89;56.99;96649.53;7400142;19;1040;-73
2024/02/15 00:42:54;;;;;;;;;;;;;;;5.88;57.26;96644.38;7399605;19;1080;-65
2024/02/15 00:45:23;;;;;;;;;;;;;;;5.91;56.76;96649.50;7398979;19;1854;-69
2024/02/15 00:47:51;;;;;;;;;;;;;;;5.80;56.72;96650.56;7399402;19;1045;-68
2024/02/15 00:50:20;;;;;;;;;;;;;;;5.80;56.97;96650.56;7399804;19;1064;-63
2024/02/15 00:52:51;;;;;;;;;;;;;;;5.75;56.75;96654.13;7399890;19;1036;-72
2024/02/15 00:55:20;;;;;;;;;;;;;;;5.73;56.94;96655.88;7399267;19;1131;-66
2024/02/15 00:57:48;;;;;;;;;;;;;;;5.61;56.91;96651.75;7399214;19;1072;-76
2024/02/15 01:00:17;;;;;;;;;;;;;;;5.57;58.32;96646.59;7399304;19;1802;-70
2024/02/15 01:02:46;;;;;;;;;;;;;;;5.51;57.68;96635.47;7399217;19;846;-71
2024/02/15 01:05:15;;;;;;;;;;;;;;;5.43;57.70;96644.25;7398882;19;1838;-70
2024/02/15 01:07:43;;;;;;;;;;;;;;;5.41;57.43;96639.94;7399189;19;1027;-70
2024/02/15 01:10:14;;;;;;;;;;;;;;;5.38;57.36;96635.66;7398383;19;1839;-69
2024/02/15 01:12:44;;;;;;;;;;;;;;;5.37;57.86;96644.34;7399105;19;990;-65
2024/02/15 01:15:12;;;;;;;;;;;;;;;5.35;57.92;96642.63;7398911;19;953;-66
2024/02/15 01:17:40;;;;;;;;;;;;;;;5.34;58.01;96638.31;7398440;19;1098;-68
2024/02/15 01:20:10;;;;;;;;;;;;;;;5.31;57.88;96634.91;7398302;19;1072;-64
2024/02/15 01:22:38;;;;;;;;;;;;;;;5.27;58.29;96638.41;7398737;19;1008;-71
2024/02/15 01:25:08;;;;;;;;;;;;;;;5.28;57.95;96637.56;7398473;19;1809;-73
2024/02/15 01:27:39;;;;;;;;;;;;;;;5.26;58.01;96634.13;7398586;19;1052;-66
2024/02/15 01:30:09;;;;;;;;;;;;;;;5.26;58.10;96636.72;7397939;19;997;-66
2024/02/15 01:32:41;;;;;;;;;;;;;;;5.18;57.99;96628.19;7397983;19;1052;-72
2024/02/15 01:35:10;;;;;;;;;;;;;;;5.16;58.32;96628.22;7397821;19;1025;-67
2024/02/15 01:37:38;;;;;;;;;;;;;;;5.16;58.49;96641.19;7397999;19;1083;-70
2024/02/15 01:40:06;;;;;;;;;;;;;;;5.09;58.29;96626.56;7397700;19;1088;-69
2024/02/15 01:42:36;;;;;;;;;;;;;;;5.08;58.88;96629.22;7397646;19;1121;-68
2024/02/15 01:45:09;;;;;;;;;;;;;;;5.02;58.90;96631.00;7397515;19;1125;-69
2024/02/15 01:47:40;;;;;;;;;;;;;;;5.04;58.51;96631.00;7395822;19;1847;-65
2024/02/15 01:50:08;;;;;;;;;;;;;;;5.03;58.92;96632.72;7397833;19;1122;-71
2024/02/15 01:52:37;;;;;;;;;;;;;;;5.04;59.35;96634.44;7397366;19;1045;-69
2024/02/15 01:55:08;;;;;;;;;;;;;;;5.07;58.93;96628.34;7397543;19;1886;-70
2024/02/15 01:57:37;;;;;;;;;;;;;;;5.08;59.23;96631.81;7397188;19;1080;-71
2024/02/15 02:00:09;;;;;;;;;;;;;;;5.00;59.19;96631.91;7397607;19;1028;-67
2024/02/15 02:02:41;;;;;;;;;;;;;;;4.99;59.09;96632.78;7397573;19;1055;-68
2024/02/15 02:05:09;;;;;;;;;;;;;;;4.92;58.85;96634.63;7397450;19;1019;-69
2024/02/15 02:07:38;;;;;;;;;;;;;;;4.95;59.22;96629.38;7395278;19;1842;-70
2024/02/15 02:10:07;;;;;;;;;;;;;;;4.96;59.42;96632.84;7397305;19;963;-67
2024/02/15 02:12:35;;;;;;;;;;;;;;;4.92;59.03;96634.63;7397199;19;1039;-71
2024/02/15 02:15:04;;;;;;;;;;;;;;;4.88;59.58;96641.56;7397035;19;1810;-70
2024/02/15 02:17:35;;;;;;;;;;;;;;;4.88;59.35;96638.13;7396707;19;1021;-69
2024/02/15 02:20:08;;;;;;;;;;;;;;;4.84;59.68;96631.28;7397082;19;998;-70
2024/02/15 02:22:36;;;;;;;;;;;;;;;4.79;59.38;96629.59;7404229;19;1104;-71
2024/02/15 02:25:08;;;;;;;;;;;;;;;4.77;59.91;96631.34;7404476;19;1916;-73
2024/02/15 02:27:37;;;;;;;;;;;;;;;4.74;59.75;96634.00;7401429;19;1842;-67
2024/02/15 02:30:10;;;;;;;;;;;;;;;4.74;59.11;96634.00;7404347;19;1838;-73
2024/02/15 02:32:39;;;;;;;;;;;;;;;4.71;59.51;96639.22;7404434;19;1013;-68
2024/02/15 02:35:11;;;;;;;;;;;;;;;4.66;59.87;96639.25;7403857;19;1024;-68
2024/02/15 02:37:40;;;;;;;;;;;;;;;4.57;59.68;96630.75;7403407;19;1446;-68
2024/02/15 02:40:12;;;;;;;;;;;;;;;4.52;60.20;96636.00;7404214;19;1028;-71
2024/02/15 02:42:49;;;;;;;;;;;;;;;4.52;60.52;96639.44;7403584;19;962;-68
2024/02/15 02:45:19;;;;;;;;;;;;;;;4.41;60.67;96639.56;7403457;19;1032;-72
2024/02/15 02:47:48;;;;;;;;;;;;;;;4.42;60.75;96640.41;7400722;19;1850;-70
2024/02/15 02:50:16;;;;;;;;;;;;;;;4.37;60.91;96643.06;7403880;19;1008;-70
2024/02/15 02:52:44;;;;;;;;;;;;;;;4.36;61.13;96638.75;7403959;19;1756;-70
2024/02/15 02:55:16;;;;;;;;;;;;;;;4.37;61.41;96640.47;7403168;19;923;-73
2024/02/15 02:57:44;;;;;;;;;;;;;;;4.33;61.04;96635.38;7403137;19;1084;-65
2024/02/15 03:00:16;;;;;;;;;;;;;;;4.21;62.03;96628.59;7403431;19;968;-69
2024/02/15 03:02:45;;;;;;;;;;;;;;;4.13;61.87;96624.31;7403365;19;964;-71
2024/02/15 03:05:14;;;;;;;;;;;;;;;4.13;61.95;96631.25;7403282;19;945;-71
2024/02/15 03:07:44;;;;;;;;;;;;;;;4.20;61.56;96638.09;7400925;19;1841;-71
2024/02/15 03:10:13;;;;;;;;;;;;;;;4.20;61.80;96639.81;7402639;19;1041;-72
2024/02/15 03:12:46;;;;;;;;;;;;;;;4.13;61.79;96637.28;7402674;19;1091;-71
2024/02/15 03:15:15;;;;;;;;;;;;;;;4.11;62.27;96644.22;7402521;19;943;-73
2024/02/15 03:17:45;;;;;;;;;;;;;;;4.06;62.87;96638.22;7402400;19;1092;-65
2024/02/15 03:20:20;;;;;;;;;;;;;;;3.99;62.96;96642.63;7402779;19;1036;-68
2024/02/15 03:22:52;;;;;;;;;;;;;;;3.92;62.84;96638.38;7402870;19;1013;-69
2024/02/15 03:25:23;;;;;;;;;;;;;;;3.85;63.81;96647.91;7402639;19;1020;-67
2024/02/15 03:27:55;;;;;;;;;;;;;;;3.69;64.22;96641.16;7399784;19;1850;-69
2024/02/15 03:30:23;;;;;;;;;;;;;;;3.66;63.97;96637.75;7402001;19;1972;-66
2024/02/15 03:32:53;;;;;;;;;;;;;;;3.65;64.18;96636.00;7402257;19;968;-70
2024/02/15 03:35:22;;;;;;;;;;;;;;;3.60;64.48;96648.16;7402071;19;1822;-68
2024/02/15 03:37:51;;;;;;;;;;;;;;;3.62;64.72;96638.66;7401499;19;1947;-64
2024/02/15 03:40:19;;;;;;;;;;;;;;;3.64;64.48;96646.38;7401693;19;930;-65
2024/02/15 03:42:48;;;;;;;;;;;;;;;3.60;64.63;96647.28;7402068;19;960;-74
2024/02/15 03:45:19;;;;;;;;;;;;;;;3.62;64.45;96642.97;7401513;19;1080;-69
2024/02/15 03:47:49;;;;;;;;;;;;;;;3.69;64.31;96651.50;7400014;19;1842;-69
2024/02/15 03:50:18;;;;;;;;;;;;;;;3.71;64.05;96652.38;7401750;19;1052;-69
2024/02/15 03:52:48;;;;;;;;;;;;;;;3.70;64.14;96655.84;7401262;19;1041;-74
2024/02/15 03:55:16;;;;;;;;;;;;;;;3.71;63.65;96654.97;7401469;19;1821;-64
2024/02/15 03:57:45;;;;;;;;;;;;;;;3.69;64.17;96667.03;7401545;19;973;-71
2024/02/15 04:00:15;;;;;;;;;;;;;;;3.71;63.80;96667.91;7401523;19;1044;-65
2024/02/15 04:02:48;;;;;;;;;;;;;;;3.71;63.47;96658.41;7400944;19;1052;-71
2024/02/15 04:05:18;;;;;;;;;;;;;;;3.68;63.53;96668.78;7400795;19;1172;-68
2024/02/15 04:07:46;;;;;;;;;;;;;;;3.63;64.33;96667.97;7399478;19;1857;-66
2024/02/15 04:10:18;;;;;;;;;;;;;;;3.58;64.11;96669.75;7401028;19;1949;-69
2024/02/15 04:12:46;;;;;;;;;;;;;;;3.60;63.73;96662.81;7400622;19;1029;-72
2024/02/15 04:15:16;;;;;;;;;;;;;;;3.54;64.14;96667.16;7400422;19;869;-66
2024/02/15 04:17:48;;;;;;;;;;;;;;;3.47;64.38;96654.28;7400456;19;1033;-73
2024/02/15 04:20:17;;;;;;;;;;;;;;;3.39;64.69;96660.38;7400346;19;1080;-71
2024/02/15 04:22:47;;;;;;;;;;;;;;;3.36;65.41;96657.81;7400348;19;1053;-67
2024/02/15 04:25:17;;;;;;;;;;;;;;;3.37;65.30;96663.88;7400144;19;1045;-67
2024/02/15 04:27:45;;;;;;;;;;;;;;;3.40;65.04;96663.81;7398632;19;1842;-69
2024/02/15 04:30:15;;;;;;;;;;;;;;;3.31;65.70;96653.56;7400433;19;1832;-74
2024/02/15 04:32:44;;;;;;;;;;;;;;;3.33;65.37;96662.13;7400038;19;997;-72
2024/02/15 04:35:15;;;;;;;;;;;;;;;3.30;65.28;96657.84;7399925;19;1052;-70
2024/02/15 04:37:46;;;;;;;;;;;;;;;3.22;65.88;96657.06;7399453;19;1486;-69
2024/02/15 04:40:18;;;;;;;;;;;;;;;3.17;66.12;96659.69;7399801;19;1028;-69
2024/02/15 04:42:47;;;;;;;;;;;;;;;3.13;66.33;96660.56;7399841;19;976;-66
2024/02/15 04:45:15;;;;;;;;;;;;;;;3.07;65.99;96653.69;7398826;19;1017;-68
2024/02/15 04:47:45;;;;;;;;;;;;;;;3.08;66.34;96657.16;7398536;19;1854;-68
2024/02/15 04:50:18;;;;;;;;;;;;;;;3.11;66.67;96660.59;7399504;19;1092;-71
2024/02/15 04:52:48;;;;;;;;;;;;;;;3.10;66.34;96656.25;7399475;19;1053;-70
2024/02/15 04:55:17;;;;;;;;;;;;;;;3.09;66.82;96662.31;7399321;19;1032;-68
2024/02/15 04:57:48;;;;;;;;;;;;;;;3.08;66.83;96670.94;7399215;19;1022;-74
2024/02/15 05:00:20;;;;;;;;;;;;;;;3.03;67.07;96668.38;7399171;19;1095;-64
2024/02/15 05:02:49;;;;;;;;;;;;;;;3.06;67.21;96671.78;7399478;19;1017;-70
2024/02/15 05:05:21;;;;;;;;;;;;;;;3.04;67.33;96674.38;7398900;19;918;-68
2024/02/15 05:07:51;;;;;;;;;;;;;;;3.10;66.93;96671.78;7397577;19;1849;-65
2024/02/15 05:10:20;;;;;;;;;;;;;;;3.07;67.16;96673.53;7398684;19;1135;-69
2024/02/15 05:12:50;;;;;;;;;;;;;;;3.12;67.18;96684.69;7398677;19;1048;-69
2024/02/15 05:15:22;;;;;;;;;;;;;;;3.10;67.04;96674.34;7398682;19;1017;-67
2024/02/15 05:17:51;;;;;;;;;;;;;;;3.14;67.19;96675.22;7398475;19;1180;-70
2024/02/15 05:20:22;;;;;;;;;;;;;;;3.16;66.99;96682.09;7398366;19;1111;-69
2024/02/15 05:22:50;;;;;;;;;;;;;;;3.21;66.64;96684.63;7398383;19;974;-69
2024/02/15 05:25:22;;;;;;;;;;;;;;;3.21;66.83;96687.22;7398301;19;1036;-68
2024/02/15 05:27:50;;;;;;;;;;;;;;;3.20;66.67;96682.06;7397097;19;1841;-70
2024/02/15 05:30:19;;;;;;;;;;;;;;;3.24;66.10;96687.22;7398414;19;1842;-68
2024/02/15 05:32:49;;;;;;;;;;;;;;;3.24;66.30;96684.63;7398424;19;1812;-69
2024/02/15 05:35:18;;;;;;;;;;;;;;;3.22;66.77;96696.69;7397949;19;1009;-75
2024/02/15 05:37:52;;;;;;;;;;;;;;;3.21;66.46;96691.53;7397444;19;1140;-69
2024/02/15 05:40:21;;;;;;;;;;;;;;;3.24;66.44;96697.56;7397838;19;1116;-71
2024/02/15 05:42:49;;;;;;;;;;;;;;;3.29;66.24;96700.13;7398199;19;962;-67
2024/02/15 05:45:33;;;;;;;;;;;;;;;3.28;66.04;96706.13;7398197;19;1044;-71
2024/02/15 05:48:02;;;;;;;;;;;;;;;3.19;66.95;96703.63;7396980;19;1842;-68
2024/02/15 05:50:31;;;;;;;;;;;;;;;3.23;66.34;96713.06;7397502;19;1018;-69
2024/02/15 05:53:03;;;;;;;;;;;;;;;3.29;66.30;96710.47;7397810;19;1004;-69
2024/02/15 05:55:34;;;;;;;;;;;;;;;3.71;66.25;96717.06;7394936;19;1072;-68
2024/02/15 05:58:02;;;;;;;;;;;;;;;4.55;63.49;96718.88;7397276;19;1037;-68
2024/02/15 06:00:31;;;;;;;;;;;;;;;5.71;60.33;96725.13;7397096;19;1104;-64
2024/02/15 06:03:01;;;;;;;;;;;;;;;6.85;56.73;96734.41;7397522;19;981;-71
2024/02/15 06:05:29;;;;;;;;;;;;;;;8.06;52.34;96748.25;7397010;19;1192;-69
2024/02/15 06:07:58;;;;;;;;;;;;;;;9.21;49.84;96749.59;7396416;19;1842;-71
2024/02/15 06:10:29;;;;;;;;;;;;;;;10.07;46.70;96750.47;7396859;19;1053;-76
2024/02/15 06:12:59;;;;;;;;;;;;;;;10.57;44.90;96748.84;7397405;19;1179;-68
2024/02/15 06:15:27;;;;;;;;;;;;;;;11.29;43.21;96756.75;7397120;19;1815;-68
2024/02/15 06:17:57;;;;;;;;;;;;;;;11.86;42.06;96763.38;7396695;19;1131;-67
2024/02/15 06:20:29;;;;;;;;;;;;;;;12.25;40.17;96762.69;7396752;19;1049;-71
2024/02/15 06:22:57;;;;;;;;;;;;;;;12.39;40.35;96769.13;7396650;19;1041;-75
2024/02/15 06:25:26;;;;;;;;;;;;;;;12.94;39.32;96772.94;7396945;19;1881;-67
2024/02/15 06:28:01;;;;;;;;;;;;;;;13.38;38.15;96768.38;7395679;19;1842;-67
2024/02/15 06:41:29;;;;;;;;;;;;;;;13.56;37.22;96765.84;7396299;19;758;-71
2024/02/15 06:44:00;;;;;;;;;;;;;;;14.81;35.31;96771.22;7396064;19;1013;-67
2024/02/15 06:46:29;;;;;;;;;;;;;;;15.49;33.94;96772.09;7396558;19;947;-67
2024/02/15 06:48:58;;;;;;;;;;;;;;;15.68;33.02;96771.06;7394245;19;1853;-69
2024/02/15 06:51:26;;;;;;;;;;;;;;;15.92;33.14;96765.38;7396362;19;1048;-67
2024/02/15 06:53:55;;;;;;;;;;;;;;;16.42;32.56;96767.88;7395978;19;1112;-74
2024/02/15 06:56:24;;;;;;;;;;;;;;;16.99;32.03;96771.59;7395741;19;1061;-73
2024/02/15 06:58:53;;;;;;;;;;;;;;;16.68;32.14;96766.34;7396437;19;1755;-72
2024/02/15 07:01:26;;;;;;;;;;;;;;;17.41;30.65;96777.03;7395623;19;1060;-71
2024/02/15 07:03:55;;;;;;;;;;;;;;;18.01;29.45;96776.81;7395943;19;1011;-73
2024/02/15 07:06:24;;;;;;;;;;;;;;;17.70;29.80;96777.94;7396326;19;1053;-71
2024/02/15 07:08:53;;;;;;;;;;;;;;;16.91;30.30;96771.19;7400708;19;1857;-68
2024/02/15 07:11:22;;;;;;;;;;;;;;;16.89;30.25;96775.75;7402772;19;1077;-72
2024/02/15 07:13:53;;;;;;;;;;;;;;;16.83;31.11;96778.75;7402657;19;1045;-68
2024/02/15 07:16:24;;;;;;;;;;;;;;;16.61;31.61;96787.91;7403084;19;1005;-66
2024/02/15 07:18:53;;;;;;;;;;;;;;;16.33;31.00;96784.25;7402967;19;985;-71
2024/02/15 07:21:25;;;;;;;;;;;;;;;16.42;31.38;96789.00;7402411;19;1083;-65
2024/02/15 07:23:54;;;;;;;;;;;;;;;16.32;31.45;96785.19;7402285;19;1195;-66
2024/02/15 07:26:24;;;;;;;;;;;;;;;16.03;31.63;96781.50;7402574;19;1906;-69
2024/02/15 07:28:53;;;;;;;;;;;;;;;15.69;32.74;96785.97;7400276;19;1842;-68
2024/02/15 07:31:24;;;;;;;;;;;;;;;15.91;32.60;96787.41;7402531;19;1974;-66
2024/02/15 07:33:53;;;;;;;;;;;;;;;16.04;31.78;96783.19;7402029;19;1033;-69
2024/02/15 07:36:23;;;;;;;;;;;;;;;15.29;33.17;96781.06;7402404;19;1067;-71
2024/02/15 07:38:51;;;;;;;;;;;;;;;15.25;32.69;96780.38;7400882;19;1796;-71
2024/02/15 07:41:22;;;;;;;;;;;;;;;15.45;33.54;96778.47;7402150;19;1039;-68
2024/02/15 07:43:50;;;;;;;;;;;;;;;15.92;32.99;96782.06;7401805;19;1088;-71
2024/02/15 07:46:19;;;;;;;;;;;;;;;16.80;31.34;96782.44;7401654;19;1392;-67
2024/02/15 07:48:50;;;;;;;;;;;;;;;16.64;30.59;96785.09;7400289;19;1850;-70
2024/02/15 07:51:20;;;;;;;;;;;;;;;15.83;33.18;96779.09;7401328;19;1013;-66
2024/02/15 07:53:49;;;;;;;;;;;;;;;16.84;32.02;96778.66;7401405;19;1020;-69
2024/02/15 07:56:18;;;;;;;;;;;;;;;17.68;30.32;96778.03;7401699;19;1040;-72
2024/02/15 07:58:48;;;;;;;;;;;;;;;17.74;29.37;96784.72;7401667;19;1047;-66
2024/02/15 08:01:16;;;;;;;;;;;;;;;17.53;30.12;96779.84;7401353;19;2032;-67
2024/02/15 08:03:46;;;;;;;;;;;;;;;17.92;29.38;96786.22;7400125;19;1665;-63
2024/02/15 08:06:18;;;;;;;;;;;;;;;17.53;29.16;96785.13;7400925;19;1056;-68
2024/02/15 08:08:47;;;;;;;;;;;;;;;16.96;30.28;96777.06;7399928;19;2325;-72
2024/02/15 08:11:18;;;;;;;;;;;;;;;16.62;31.09;96782.53;7400773;19;1154;-67
2024/02/15 08:13:49;;;;;;;;;;;;;;;16.15;32.76;96774.69;7400707;19;967;-66
2024/02/15 08:16:18;;;;;;;;;;;;;;;16.04;34.04;96767.38;7401076;19;1032;-66
2024/02/15 08:18:47;;;;;;;;;;;;;;;16.54;32.08;96768.97;7398559;19;1167;-67
2024/02/15 08:21:18;;;;;;;;;;;;;;;16.34;34.08;96770.13;7400712;19;1815;-67
2024/02/15 08:23:47;;;;;;;;;;;;;;;16.74;32.39;96765.13;7400828;19;1035;-67
2024/02/15 08:26:16;;;;;;;;;;;;;;;16.44;32.38;96771.31;7401106;19;1674;-68
2024/02/15 08:28:45;;;;;;;;;;;;;;;16.18;33.93;96771.00;7399027;19;1846;-72
2024/02/15 08:31:15;;;;;;;;;;;;;;;16.33;31.73;96773.69;7400105;19;1846;-73
2024/02/15 08:33:44;;;;;;;;;;;;;;;16.36;32.53;96778.78;7400471;19;980;-70
2024/02/15 08:36:13;;;;;;;;;;;;;;;15.32;32.79;96766.91;7399925;19;1029;-72
2024/02/15 08:38:44;;;;;;;;;;;;;;;14.38;35.10;96766.34;7398854;19;1060;-69
2024/02/15 08:41:14;;;;;;;;;;;;;;;13.97;35.61;96764.81;7399696;19;1217;-66
2024/02/15 08:43:43;;;;;;;;;;;;;;;13.62;36.80;96769.06;7399542;19;1248;-75
2024/02/15 08:46:12;;;;;;;;;;;;;;;13.10;37.06;96765.22;7399490;19;1132;-72
2024/02/15 08:48:41;;;;;;;;;;;;;;;12.88;38.42;96762.69;7398538;19;1860;-70
2024/02/15 08:51:09;;;;;;;;;;;;;;;12.66;38.67;96768.00;7399709;19;2003;-66
2024/02/15 08:53:38;;;;;;;;;;;;;;;12.73;38.67;96772.94;7399755;19;1020;-70
2024/02/15 08:56:10;;;;;;;;;;;;;;;12.54;37.79;96761.53;7399456;19;854;-74
2024/02/15 08:58:40;;;;;;;;;;;;;;;12.37;39.78;96761.31;7399276;19;1053;-73
2024/02/15 09:01:09;;;;;;;;;;;;;;;12.23;41.32;96761.03;7399201;19;1018;-72
2024/02/15 09:03:37;;;;;;;;;;;;;;;12.26;40.13;96769.63;7399263;19;1863;-70
2024/02/15 09:06:07;;;;;;;;;;;;;;;12.40;40.14;96762.94;7399141;19;1939;-65
2024/02/15 09:08:35;;;;;;;;;;;;;;;12.26;39.80;96763.53;7398055;19;1850;-69
2024/02/15 09:11:04;;;;;;;;;;;;;;;12.17;40.29;96759.53;7399171;19;956;-65
2024/02/15 09:13:37;;;;;;;;;;;;;;;11.80;39.31;96753.94;7399000;19;1839;-70
2024/02/15 09:16:06;;;;;;;;;;;;;;;11.08;41.58;96750.56;7398569;19;1085;-65
2024/02/15 09:18:34;;;;;;;;;;;;;;;10.69;41.25;96759.78;7398933;19;1020;-68
2024/02/15 09:21:04;;;;;;;;;;;;;;;10.47;42.19;96753.53;7398446;19;1127;-66
2024/02/15 09:23:33;;;;;;;;;;;;;;;10.23;43.66;96755.19;7398806;19;1059;-67
2024/02/15 09:26:01;;;;;;;;;;;;;;;10.13;44.54;96748.53;7398231;19;1017;-68
2024/02/15 09:28:30;;;;;;;;;;;;;;;10.10;43.81;96753.00;7397602;19;1988;-69
2024/02/15 09:30:59;;;;;;;;;;;;;;;10.47;44.11;96744.81;7397753;19;1099;-64
2024/02/15 09:33:28;;;;;;;;;;;;;;;10.65;43.45;96756.41;7396307;19;1131;-72
2024/02/15 09:35:57;;;;;;;;;;;;;;;10.48;42.36;96751.78;7398252;19;1911;-66
2024/02/15 09:38:26;;;;;;;;;;;;;;;10.44;43.41;96753.59;7397292;19;1756;-72
2024/02/15 09:40:55;;;;;;;;;;;;;;;10.52;43.32;96750.78;7397773;19;1122;-67
2024/02/15 09:43:26;;;;;;;;;;;;;;;10.48;43.78;96757.03;7398273;19;949;-63
2024/02/15 09:45:55;;;;;;;;;;;;;;;10.51;43.76;96751.69;7398048;19;1064;-68
2024/02/15 09:48:27;;;;;;;;;;;;;;;10.53;42.79;96751.63;7397529;19;1866;-74
2024/02/15 09:50:57;;;;;;;;;;;;;;;10.59;42.80;96748.78;7397452;19;1104;-75
2024/02/15 09:53:28;;;;;;;;;;;;;;;10.52;43.64;96744.66;7398246;19;1729;-72
2024/02/15 09:56:04;;;;;;;;;;;;;;;10.60;44.17;96737.44;7397841;19;1380;-67
2024/02/15 09:58:34;;;;;;;;;;;;;;;10.69;43.83;96736.25;7397808;19;1035;-67
2024/02/15 10:01:09;;;;;;;;;;;;;;;10.79;43.33;96726.28;7397734;19;1012;-71
2024/02/15 10:03:40;;;;;;;;;;;;;;;10.82;43.44;96734.91;7397198;19;1057;-69
2024/02/15 10:06:09;;;;;;;;;;;;;;;10.64;42.78;96735.53;7397469;19;1015;-63
2024/02/15 10:08:38;;;;;;;;;;;;;;;10.60;44.13;96730.41;7396503;19;1854;-71
2024/02/15 10:11:10;;;;;;;;;;;;;;;10.63;43.44;96737.31;7396909;19;1033;-72
2024/02/15 10:13:39;;;;;;;;;;;;;;;10.60;44.69;96729.59;7397294;19;1108;-73
2024/02/15 10:16:26;;;;;;;;;;;;;;;10.68;44.13;96724.06;7396697;19;1009;-66
2024/02/15 10:21:55;;;;;;;;;;;;;;;10.40;42.88;96717.16;7396909;19;877;-76
2024/02/15 10:24:24;;;;;;;;;;;;;;;10.34;44.42;96723.44;7396597;19;1015;-70
2024/02/15 10:26:52;;;;;;;;;;;;;;;10.52;43.20;96728.97;7396459;19;1234;-68
2024/02/15 10:29:22;;;;;;;;;;;;;;;10.23;42.78;96716.81;7395576;19;1855;-72
2024/02/15 10:31:58;;;;;;;;;;;;;;;10.11;43.21;96725.06;7396521;19;1131;-72
2024/02/15 10:34:27;;;;;;;;;;;;;;;10.01;43.88;96719.31;7396324;19;1013;-70
2024/02/15 10:37:12;;;;;;;;;;;;;;;9.88;44.42;96718.84;7396635;19;1061;-65
2024/02/15 10:39:41;;;;;;;;;;;;;;;9.99;44.40;96714.13;7394418;19;1151;-69
2024/02/15 10:42:11;;;;;;;;;;;;;;;10.14;43.92;96706.66;7399388;19;1045;-74
2024/02/15 10:44:40;;;;;;;;;;;;;;;10.31;45.03;96705.25;7403718;19;1041;-68
2024/02/15 10:47:08;;;;;;;;;;;;;;;10.38;43.63;96711.13;7403500;19;1134;-66
2024/02/15 10:49:37;;;;;;;;;;;;;;;10.45;42.75;96702.16;7402576;19;1853;-69
2024/02/15 10:52:12;;;;;;;;;;;;;;;10.52;44.25;96702.81;7403423;19;1092;-70
2024/02/15 10:54:44;;;;;;;;;;;;;;;10.51;43.75;96707.22;7403740;19;954;-69
2024/02/15 10:57:14;;;;;;;;;;;;;;;10.30;43.78;96714.00;7403260;19;1013;-72
2024/02/15 10:59:46;;;;;;;;;;;;;;;10.28;43.56;96703.59;7403210;19;1077;-68
2024/02/15 11:02:27;;;;;;;;;;;;;;;10.11;44.26;96698.94;7403598;19;1035;-71
2024/02/15 11:04:57;;;;;;;;;;;;;;;10.13;43.79;96693.66;7403580;19;1027;-70
2024/02/15 11:07:30;;;;;;;;;;;;;;;10.24;44.74;96692.38;7402921;19;1073;-68
2024/02/15 11:09:59;;;;;;;;;;;;;;;10.44;43.83;96692.59;7400821;19;1868;-70
2024/02/15 11:12:28;;;;;;;;;;;;;;;10.63;45.84;96686.75;7402732;19;907;-68
2024/02/15 11:14:57;;;;;;;;;;;;;;;10.81;42.81;96693.09;7403139;19;1803;-65
2024/02/15 11:17:49;;;;;;;;;;;;;;;10.83;43.44;96688.63;7402566;19;1060;-66
2024/02/15 11:20:44;;;;;;;;;;;;;;;10.93;42.79;96687.38;7402457;19;1084;-70
2024/02/15 11:23:26;;;;;;;;;;;;;;;10.97;41.59;96691.63;7400413;19;1096;-64
2024/02/15 11:25:56;;;;;;;;;;;;;;;10.85;42.78;96678.97;7402090;19;1230;-68
2024/02/15 11:28:42;;;;;;;;;;;;;;;11.02;43.99;96677.50;7401947;19;1064;-67
2024/02/15 11:31:12;;;;;;;;;;;;;;;11.17;42.20;96692.59;7402523;19;960;-63
2024/02/15 11:33:41;;;;;;;;;;;;;;;11.08;41.78;96679.88;7402483;19;1064;-72
2024/02/15 11:36:11;;;;;;;;;;;;;;;11.04;42.55;96686.13;7401935;19;1143;-75
2024/02/15 11:38:43;;;;;;;;;;;;;;;10.95;42.40;96682.97;7400837;19;1091;-72
2024/02/15 11:41:11;;;;;;;;;;;;;;;10.84;43.62;96683.34;7402233;19;1016;-70
2024/02/15 11:43:54;;;;;;;;;;;;;;;10.88;41.87;96684.09;7401640;19;1084;-68
2024/02/15 11:46:24;;;;;;;;;;;;;;;10.63;42.60;96685.00;7401611;19;1052;-73
2024/02/15 11:48:53;;;;;;;;;;;;;;;10.66;41.72;96679.66;7401513;19;1849;-65
2024/02/15 11:51:28;;;;;;;;;;;;;;;10.74;41.94;96681.97;7401903;19;1017;-67
2024/02/15 11:54:11;;;;;;;;;;;;;;;10.61;42.41;96677.22;7398658;19;995;-69
2024/02/15 11:57:04;;;;;;;;;;;;;;;10.59;42.48;96671.16;7401300;19;1020;-65
2024/02/15 11:59:42;;;;;;;;;;;;;;;10.71;42.65;96669.88;7401629;19;989;-67
2024/02/15 12:21:05;;;;;;;;;;;;;;;10.14;43.91;96674.47;7400782;19;778;-72
2024/02/15 12:23:35;;;;;;;;;;;;;;;10.10;42.60;96673.72;7400480;19;1092;-68
2024/02/15 12:26:07;;;;;;;;;;;;;;;10.15;42.57;96678.78;7400820;19;1039;-66
2024/02/15 12:28:36;;;;;;;;;;;;;;;10.19;43.41;96678.63;7400232;19;1009;-70
2024/02/15 12:31:06;;;;;;;;;;;;;;;10.09;42.97;96680.69;7398727;19;1838;-73
2024/02/15 12:33:37;;;;;;;;;;;;;;;10.08;42.46;96670.28;7400079;19;1107;-70
2024/02/15 12:36:09;;;;;;;;;;;;;;;10.21;43.80;96675.97;7399906;19;1081;-68
2024/02/15 12:38:38;;;;;;;;;;;;;;;10.22;42.20;96688.13;7398668;19;1168;-72
2024/02/15 12:41:19;;;;;;;;;;;;;;;10.11;42.68;96684.09;7399742;19;1132;-72
2024/02/15 12:46:45;;;;;;;;;;;;;;;9.86;42.77;96678.84;7399303;19;849;-68
2024/02/15 12:49:20;;;;;;;;;;;;;;;9.77;43.01;96689.59;7398985;19;1847;-71
2024/02/15 12:51:53;;;;;;;;;;;;;;;9.66;43.02;96676.91;7399358;19;1389;-68
2024/02/15 12:54:23;;;;;;;;;;;;;;;9.67;44.33;96679.47;7399565;19;1049;-70
2024/02/15 12:57:10;;;;;;;;;;;;;;;9.81;43.78;96670.31;7399442;19;1123;-71
2024/02/15 12:59:39;;;;;;;;;;;;;;;9.83;44.22;96686.78;7399032;19;1181;-71
2024/02/15 13:02:07;;;;;;;;;;;;;;;9.91;43.54;96691.75;7399077;19;1040;-73
2024/02/15 13:04:37;;;;;;;;;;;;;;;9.94;43.14;96691.66;7398144;19;1990;-65
2024/02/15 13:07:06;;;;;;;;;;;;;;;9.78;43.10;96688.72;7399021;19;1108;-72
2024/02/15 13:09:35;;;;;;;;;;;;;;;9.64;43.76;96687.41;7398779;19;1851;-67
2024/02/15 13:12:06;;;;;;;;;;;;;;;9.66;44.00;96676.91;7398693;19;1056;-68
2024/02/15 13:14:35;;;;;;;;;;;;;;;9.67;44.16;96675.97;7399287;19;1071;-72
2024/02/15 13:17:03;;;;;;;;;;;;;;;9.73;44.01;96678.41;7398579;19;1049;-69
2024/02/15 13:19:35;;;;;;;;;;;;;;;9.72;42.76;96690.59;7398554;19;1131;-70
2024/02/15 13:22:04;;;;;;;;;;;;;;;9.64;43.72;96671.72;7398820;19;1047;-69
2024/02/15 13:24:32;;;;;;;;;;;;;;;9.76;43.98;96670.47;7398639;19;1775;-69
2024/02/15 13:27:01;;;;;;;;;;;;;;;9.89;43.20;96668.28;7398632;19;1014;-67
2024/02/15 13:29:32;;;;;;;;;;;;;;;9.91;44.02;96673.47;7397760;19;1836;-68
2024/02/15 13:32:01;;;;;;;;;;;;;;;9.93;44.08;96675.13;7398028;19;1049;-73
2024/02/15 13:34:30;;;;;;;;;;;;;;;10.06;43.92;96690.41;7398539;19;999;-69
2024/02/15 13:36:58;;;;;;;;;;;;;;;10.03;43.41;96685.28;7398386;19;1014;-70
2024/02/15 13:39:32;;;;;;;;;;;;;;;10.09;43.64;96679.84;7396212;19;1119;-73
2024/02/15 13:42:01;;;;;;;;;;;;;;;10.12;42.76;96687.59;7397715;19;940;-70
2024/02/15 13:44:35;;;;;;;;;;;;;;;10.01;43.13;96685.31;7396116;19;1104;-74
2024/02/15 13:47:05;;;;;;;;;;;;;;;9.90;44.00;96677.84;7397679;19;1123;-66
2024/02/15 13:49:34;;;;;;;;;;;;;;;9.92;44.09;96696.06;7397217;19;1842;-71
2024/02/15 13:52:05;;;;;;;;;;;;;;;9.95;44.45;96690.75;7397509;19;1025;-69
2024/02/15 13:54:33;;;;;;;;;;;;;;;9.97;44.23;96688.97;7397446;19;1056;-69
2024/02/15 13:57:02;;;;;;;;;;;;;;;9.92;43.63;96691.72;7397613;19;1788;-74